LAS weather

McCarran International Airport
Las Vegas, Nevada, United States

Public forecast

Using degrees Fahrenheit for public forecast. Weather courtesy of forecast.io.

Current aviation weather report (METAR) for McCarran International Airport

Retrieved 2020/01/29 06:56 UTC (1 hour ago):

KLAS 290656Z 00000KT 10SM FEW150 SCT250 09/M02 A3006 RMK AO2 SLP175 T00941022

Aviation forecast (TAF) for McCarran International Airport

Retrieved 2020/01/29 06:42 UTC (1 hour ago):

TAF KLAS 290540Z 2906/3012 26006KT P6SM FEW150 BKN250 FM291100 31009KT P6SM SKC FM291400 33011G21KT P6SM SKC FM291700 35018G28KT P6SM FEW200 FM292200 02018G28KT P6SM FEW200 FM300400 34011KT P6SM SKC